This is the latest recevied weather packets stored in our database for station/object OH2TH. If no packets are shown the sender has not sent any weather packets the latest 10 day(s).
| Time | Temp. | Humidity | Pressure | Rain* | Wind** | Luminosity | Snow |
|---|---|---|---|---|---|---|---|
| 1778049001 | 7.78° C | 48% | 101 hPa | - | - | - | - |
| 1778048101 | 7.22° C | 52% | 101 hPa | - | - | - | - |
| 1778047201 | 7.22° C | 57% | 101 hPa | - | - | - | - |
| 1778046301 | 6.11° C | 61% | 101 hPa | - | - | - | - |
| 1778045400 | 5° C | 66% | 101 hPa | - | - | - | - |
| 1778044505 | 3.89° C | 69% | 101 hPa | - | - | - | - |
| 1778043605 | 2.78° C | 74% | 101 hPa | - | - | - | - |
| 1778042705 | 2.22° C | 77% | 101 hPa | - | - | - | - |
| 1778041804 | 2.22° C | 81% | 101 hPa | - | - | - | - |
| 1778040904 | 1.11° C | 82% | 101 hPa | - | - | - | - |
| 1778040003 | 1.11° C | 81% | 101 hPa | - | - | - | - |
| 1778039102 | - | 83% | 101 hPa | - | - | - | - |
| 1778038201 | - | 81% | 101 hPa | - | - | - | - |
| 1778037301 | 0° C | 83% | 101 hPa | - | - | - | - |
| 1778036405 | 0° C | 84% | 101 hPa | - | - | - | - |
| 1778035504 | 0° C | 82% | 101 hPa | - | - | - | - |
| 1778034603 | -1.11° C | 82% | 101 hPa | - | - | - | - |
| 1778033702 | -1.11° C | 85% | 101 hPa | - | - | - | - |
| 1778032802 | 0° C | 83% | 101 hPa | - | - | - | - |
| 1778031901 | 0° C | 83% | 101 hPa | - | - | - | - |
| 1778031005 | 0° C | 82% | 101 hPa | - | - | - | - |
| 1778030104 | - | 80% | 101 hPa | - | - | - | - |
| 1778029204 | 0° C | 83% | 101 hPa | - | - | - | - |
| 1778028303 | 1.11° C | 80% | 101 hPa | - | - | - | - |
| 1778027402 | 1.11° C | 81% | 101 hPa | - | - | - | - |
* Rain since midnight (hover to see other rain measurements)
** Current wind speed in m/s (hover to see current wind gust speed)